sensor_id;sensor_type;location;lat;lon;timestamp;P1;durP1;ratioP1;P2;durP2;ratioP2
10458;SDS011;5277;48.722;8.736;2022-08-19T00:01:19;17.80;;;11.93;;
10458;SDS011;5277;48.722;8.736;2022-08-19T00:03:45;12.57;;;10.43;;
10458;SDS011;5277;48.722;8.736;2022-08-19T00:06:11;13.23;;;11.30;;
10458;SDS011;5277;48.722;8.736;2022-08-19T00:08:37;12.90;;;11.25;;
10458;SDS011;5277;48.722;8.736;2022-08-19T00:11:04;14.95;;;10.95;;
10458;SDS011;5277;48.722;8.736;2022-08-19T00:13:30;12.98;;;10.77;;
10458;SDS011;5277;48.722;8.736;2022-08-19T00:15:56;12.80;;;11.40;;
10458;SDS011;5277;48.722;8.736;2022-08-19T00:18:23;14.52;;;11.23;;
10458;SDS011;5277;48.722;8.736;2022-08-19T00:20:49;13.75;;;11.95;;
10458;SDS011;5277;48.722;8.736;2022-08-19T00:23:15;13.80;;;11.40;;
10458;SDS011;5277;48.722;8.736;2022-08-19T00:25:41;12.10;;;10.70;;
10458;SDS011;5277;48.722;8.736;2022-08-19T00:28:06;14.27;;;11.15;;
10458;SDS011;5277;48.722;8.736;2022-08-19T00:30:32;15.27;;;11.85;;
10458;SDS011;5277;48.722;8.736;2022-08-19T00:32:58;15.00;;;11.55;;
10458;SDS011;5277;48.722;8.736;2022-08-19T00:35:24;14.45;;;11.52;;
10458;SDS011;5277;48.722;8.736;2022-08-19T00:37:52;14.45;;;11.55;;
10458;SDS011;5277;48.722;8.736;2022-08-19T00:40:21;13.85;;;11.35;;
10458;SDS011;5277;48.722;8.736;2022-08-19T00:42:47;13.23;;;11.45;;
10458;SDS011;5277;48.722;8.736;2022-08-19T00:45:22;12.73;;;11.10;;
10458;SDS011;5277;48.722;8.736;2022-08-19T00:47:50;14.38;;;11.57;;
10458;SDS011;5277;48.722;8.736;2022-08-19T00:50:17;16.23;;;12.13;;
10458;SDS011;5277;48.722;8.736;2022-08-19T00:52:45;13.90;;;11.93;;
10458;SDS011;5277;48.722;8.736;2022-08-19T00:55:18;15.52;;;12.45;;
10458;SDS011;5277;48.722;8.736;2022-08-19T00:57:48;15.45;;;12.73;;
10458;SDS011;5277;48.722;8.736;2022-08-19T01:00:22;13.45;;;11.40;;
10458;SDS011;5277;48.722;8.736;2022-08-19T01:02:49;15.27;;;12.40;;
10458;SDS011;5277;48.722;8.736;2022-08-19T01:05:16;14.23;;;12.57;;
10458;SDS011;5277;48.722;8.736;2022-08-19T01:07:45;14.48;;;12.23;;
10458;SDS011;5277;48.722;8.736;2022-08-19T01:10:14;18.20;;;12.82;;
10458;SDS011;5277;48.722;8.736;2022-08-19T01:12:41;15.18;;;12.70;;
10458;SDS011;5277;48.722;8.736;2022-08-19T01:15:08;13.55;;;12.13;;
10458;SDS011;5277;48.722;8.736;2022-08-19T01:17:36;15.10;;;12.38;;
10458;SDS011;5277;48.722;8.736;2022-08-19T01:20:04;15.88;;;12.90;;
10458;SDS011;5277;48.722;8.736;2022-08-19T01:22:51;17.85;;;12.70;;
10458;SDS011;5277;48.722;8.736;2022-08-19T01:25:19;16.27;;;13.07;;
10458;SDS011;5277;48.722;8.736;2022-08-19T01:27:52;19.85;;;13.13;;
10458;SDS011;5277;48.722;8.736;2022-08-19T01:30:26;17.02;;;12.70;;
10458;SDS011;5277;48.722;8.736;2022-08-19T01:32:56;14.98;;;12.07;;
10458;SDS011;5277;48.722;8.736;2022-08-19T01:35:23;18.10;;;13.07;;
10458;SDS011;5277;48.722;8.736;2022-08-19T01:37:52;14.18;;;11.60;;
10458;SDS011;5277;48.722;8.736;2022-08-19T01:40:21;16.35;;;13.50;;
10458;SDS011;5277;48.722;8.736;2022-08-19T01:42:50;16.50;;;13.27;;
10458;SDS011;5277;48.722;8.736;2022-08-19T01:45:17;14.32;;;12.65;;
10458;SDS011;5277;48.722;8.736;2022-08-19T01:47:45;16.73;;;12.18;;
10458;SDS011;5277;48.722;8.736;2022-08-19T01:50:11;15.73;;;12.38;;
10458;SDS011;5277;48.722;8.736;2022-08-19T01:52:39;13.48;;;12.07;;
10458;SDS011;5277;48.722;8.736;2022-08-19T01:55:08;15.02;;;12.55;;
10458;SDS011;5277;48.722;8.736;2022-08-19T01:57:36;19.13;;;13.32;;
10458;SDS011;5277;48.722;8.736;2022-08-19T02:00:07;16.65;;;12.18;;
10458;SDS011;5277;48.722;8.736;2022-08-19T02:02:35;16.48;;;13.38;;
10458;SDS011;5277;48.722;8.736;2022-08-19T02:05:00;14.77;;;12.30;;
10458;SDS011;5277;48.722;8.736;2022-08-19T02:07:26;15.68;;;13.10;;
10458;SDS011;5277;48.722;8.736;2022-08-19T02:09:54;16.60;;;12.43;;
10458;SDS011;5277;48.722;8.736;2022-08-19T02:12:20;14.40;;;12.88;;
10458;SDS011;5277;48.722;8.736;2022-08-19T02:14:46;14.90;;;13.02;;
10458;SDS011;5277;48.722;8.736;2022-08-19T02:17:12;15.77;;;12.10;;
10458;SDS011;5277;48.722;8.736;2022-08-19T02:19:38;17.23;;;13.50;;
10458;SDS011;5277;48.722;8.736;2022-08-19T02:22:04;19.00;;;12.45;;
10458;SDS011;5277;48.722;8.736;2022-08-19T02:24:30;14.95;;;12.20;;
10458;SDS011;5277;48.722;8.736;2022-08-19T02:26:56;15.45;;;12.48;;
10458;SDS011;5277;48.722;8.736;2022-08-19T02:29:22;15.20;;;12.68;;
10458;SDS011;5277;48.722;8.736;2022-08-19T02:31:48;16.58;;;12.70;;
10458;SDS011;5277;48.722;8.736;2022-08-19T02:34:13;15.35;;;12.27;;
10458;SDS011;5277;48.722;8.736;2022-08-19T02:36:39;15.55;;;13.10;;
10458;SDS011;5277;48.722;8.736;2022-08-19T02:39:05;16.48;;;13.00;;
10458;SDS011;5277;48.722;8.736;2022-08-19T02:41:31;15.20;;;12.82;;
10458;SDS011;5277;48.722;8.736;2022-08-19T02:43:58;16.40;;;13.07;;
10458;SDS011;5277;48.722;8.736;2022-08-19T02:46:29;16.85;;;12.98;;
10458;SDS011;5277;48.722;8.736;2022-08-19T02:49:00;14.35;;;12.80;;
10458;SDS011;5277;48.722;8.736;2022-08-19T02:51:32;16.80;;;12.73;;
10458;SDS011;5277;48.722;8.736;2022-08-19T02:54:03;18.05;;;13.68;;
10458;SDS011;5277;48.722;8.736;2022-08-19T02:56:30;17.27;;;13.00;;
10458;SDS011;5277;48.722;8.736;2022-08-19T02:58:56;15.75;;;12.80;;
10458;SDS011;5277;48.722;8.736;2022-08-19T03:03:52;14.02;;;12.40;;
10458;SDS011;5277;48.722;8.736;2022-08-19T03:06:19;20.35;;;13.15;;
10458;SDS011;5277;48.722;8.736;2022-08-19T03:08:45;15.65;;;12.75;;
10458;SDS011;5277;48.722;8.736;2022-08-19T03:11:15;15.95;;;13.80;;
10458;SDS011;5277;48.722;8.736;2022-08-19T03:13:44;16.88;;;13.55;;
10458;SDS011;5277;48.722;8.736;2022-08-19T03:16:10;18.23;;;13.63;;
10458;SDS011;5277;48.722;8.736;2022-08-19T03:18:36;16.75;;;14.05;;
10458;SDS011;5277;48.722;8.736;2022-08-19T03:21:02;16.33;;;13.07;;
10458;SDS011;5277;48.722;8.736;2022-08-19T03:23:28;15.15;;;13.55;;
10458;SDS011;5277;48.722;8.736;2022-08-19T03:25:54;16.00;;;13.55;;
10458;SDS011;5277;48.722;8.736;2022-08-19T03:28:20;15.00;;;13.32;;
10458;SDS011;5277;48.722;8.736;2022-08-19T03:30:59;15.18;;;13.02;;
10458;SDS011;5277;48.722;8.736;2022-08-19T03:33:28;15.68;;;14.00;;
10458;SDS011;5277;48.722;8.736;2022-08-19T03:38:30;17.52;;;13.48;;
10458;SDS011;5277;48.722;8.736;2022-08-19T03:40:57;15.65;;;13.18;;
10458;SDS011;5277;48.722;8.736;2022-08-19T03:43:26;16.52;;;13.88;;
10458;SDS011;5277;48.722;8.736;2022-08-19T03:46:07;16.90;;;13.95;;
10458;SDS011;5277;48.722;8.736;2022-08-19T03:48:38;19.65;;;14.48;;
10458;SDS011;5277;48.722;8.736;2022-08-19T03:51:06;17.90;;;14.35;;
10458;SDS011;5277;48.722;8.736;2022-08-19T03:53:34;16.83;;;14.55;;
10458;SDS011;5277;48.722;8.736;2022-08-19T03:56:00;17.40;;;14.98;;
10458;SDS011;5277;48.722;8.736;2022-08-19T03:58:27;15.15;;;13.07;;
10458;SDS011;5277;48.722;8.736;2022-08-19T04:00:57;16.50;;;13.63;;
10458;SDS011;5277;48.722;8.736;2022-08-19T04:03:24;16.70;;;13.75;;
10458;SDS011;5277;48.722;8.736;2022-08-19T04:05:52;18.73;;;14.73;;
10458;SDS011;5277;48.722;8.736;2022-08-19T04:08:18;17.85;;;14.38;;
10458;SDS011;5277;48.722;8.736;2022-08-19T04:10:47;16.73;;;14.18;;
10458;SDS011;5277;48.722;8.736;2022-08-19T04:13:14;18.05;;;13.63;;
10458;SDS011;5277;48.722;8.736;2022-08-19T04:15:42;20.67;;;14.93;;
10458;SDS011;5277;48.722;8.736;2022-08-19T04:18:11;18.77;;;15.02;;
10458;SDS011;5277;48.722;8.736;2022-08-19T04:20:41;20.05;;;15.05;;
10458;SDS011;5277;48.722;8.736;2022-08-19T04:23:11;16.13;;;13.93;;
10458;SDS011;5277;48.722;8.736;2022-08-19T04:25:38;21.60;;;15.73;;
10458;SDS011;5277;48.722;8.736;2022-08-19T04:28:06;16.83;;;14.02;;
10458;SDS011;5277;48.722;8.736;2022-08-19T04:30:37;18.73;;;15.38;;
10458;SDS011;5277;48.722;8.736;2022-08-19T04:33:08;17.48;;;14.13;;
10458;SDS011;5277;48.722;8.736;2022-08-19T04:35:36;18.92;;;14.95;;
10458;SDS011;5277;48.722;8.736;2022-08-19T04:38:03;18.40;;;15.43;;
10458;SDS011;5277;48.722;8.736;2022-08-19T04:40:29;17.23;;;14.30;;
10458;SDS011;5277;48.722;8.736;2022-08-19T04:43:13;16.90;;;15.07;;
10458;SDS011;5277;48.722;8.736;2022-08-19T04:45:41;16.90;;;15.10;;
10458;SDS011;5277;48.722;8.736;2022-08-19T04:48:11;17.63;;;14.73;;
10458;SDS011;5277;48.722;8.736;2022-08-19T04:50:39;18.75;;;15.18;;
10458;SDS011;5277;48.722;8.736;2022-08-19T04:53:06;16.27;;;14.35;;
10458;SDS011;5277;48.722;8.736;2022-08-19T04:55:32;17.75;;;15.15;;
10458;SDS011;5277;48.722;8.736;2022-08-19T04:57:58;16.70;;;14.70;;
10458;SDS011;5277;48.722;8.736;2022-08-19T05:00:24;18.10;;;14.90;;
10458;SDS011;5277;48.722;8.736;2022-08-19T05:02:50;15.75;;;14.10;;
10458;SDS011;5277;48.722;8.736;2022-08-19T05:05:16;15.55;;;13.98;;
10458;SDS011;5277;48.722;8.736;2022-08-19T05:07:42;17.02;;;14.20;;
10458;SDS011;5277;48.722;8.736;2022-08-19T05:10:08;17.88;;;13.95;;
10458;SDS011;5277;48.722;8.736;2022-08-19T05:12:34;17.10;;;14.73;;
10458;SDS011;5277;48.722;8.736;2022-08-19T05:15:05;15.98;;;14.20;;
10458;SDS011;5277;48.722;8.736;2022-08-19T05:17:34;17.88;;;14.48;;
10458;SDS011;5277;48.722;8.736;2022-08-19T05:20:01;14.50;;;12.45;;
10458;SDS011;5277;48.722;8.736;2022-08-19T05:22:46;17.88;;;13.75;;
10458;SDS011;5277;48.722;8.736;2022-08-19T05:25:14;17.40;;;13.90;;
10458;SDS011;5277;48.722;8.736;2022-08-19T05:27:43;16.70;;;13.52;;
10458;SDS011;5277;48.722;8.736;2022-08-19T05:30:10;16.05;;;13.70;;
10458;SDS011;5277;48.722;8.736;2022-08-19T05:32:37;17.20;;;13.98;;
10458;SDS011;5277;48.722;8.736;2022-08-19T05:35:04;17.70;;;14.55;;
10458;SDS011;5277;48.722;8.736;2022-08-19T05:37:30;16.73;;;14.63;;
10458;SDS011;5277;48.722;8.736;2022-08-19T05:39:56;18.02;;;15.02;;
10458;SDS011;5277;48.722;8.736;2022-08-19T05:42:22;23.55;;;15.20;;
10458;SDS011;5277;48.722;8.736;2022-08-19T05:44:48;23.10;;;15.13;;
10458;SDS011;5277;48.722;8.736;2022-08-19T05:47:14;18.08;;;14.68;;
10458;SDS011;5277;48.722;8.736;2022-08-19T05:49:40;16.98;;;14.77;;
10458;SDS011;5277;48.722;8.736;2022-08-19T05:52:08;16.20;;;14.48;;
10458;SDS011;5277;48.722;8.736;2022-08-19T05:54:37;16.17;;;14.30;;
10458;SDS011;5277;48.722;8.736;2022-08-19T05:57:08;17.77;;;15.25;;
10458;SDS011;5277;48.722;8.736;2022-08-19T05:59:34;15.95;;;14.25;;
10458;SDS011;5277;48.722;8.736;2022-08-19T06:02:01;16.42;;;14.40;;
10458;SDS011;5277;48.722;8.736;2022-08-19T06:04:28;17.70;;;14.68;;
10458;SDS011;5277;48.722;8.736;2022-08-19T06:06:54;16.42;;;14.15;;
10458;SDS011;5277;48.722;8.736;2022-08-19T06:09:21;17.00;;;13.73;;
10458;SDS011;5277;48.722;8.736;2022-08-19T06:11:49;19.17;;;14.48;;
10458;SDS011;5277;48.722;8.736;2022-08-19T06:14:24;17.83;;;14.02;;
10458;SDS011;5277;48.722;8.736;2022-08-19T06:16:55;15.73;;;14.02;;
10458;SDS011;5277;48.722;8.736;2022-08-19T06:19:22;17.25;;;14.20;;
10458;SDS011;5277;48.722;8.736;2022-08-19T06:21:49;15.38;;;13.77;;
10458;SDS011;5277;48.722;8.736;2022-08-19T06:24:17;20.17;;;15.00;;
10458;SDS011;5277;48.722;8.736;2022-08-19T06:26:48;16.05;;;14.30;;
10458;SDS011;5277;48.722;8.736;2022-08-19T06:29:14;17.23;;;14.38;;
10458;SDS011;5277;48.722;8.736;2022-08-19T06:31:43;20.92;;;14.93;;
10458;SDS011;5277;48.722;8.736;2022-08-19T06:34:11;15.82;;;13.73;;
10458;SDS011;5277;48.722;8.736;2022-08-19T06:36:38;16.23;;;14.50;;
10458;SDS011;5277;48.722;8.736;2022-08-19T06:39:17;17.08;;;14.63;;
10458;SDS011;5277;48.722;8.736;2022-08-19T06:41:49;16.38;;;14.38;;
10458;SDS011;5277;48.722;8.736;2022-08-19T06:44:20;18.05;;;14.07;;
10458;SDS011;5277;48.722;8.736;2022-08-19T06:46:47;16.42;;;14.13;;
10458;SDS011;5277;48.722;8.736;2022-08-19T06:49:14;16.13;;;13.90;;
10458;SDS011;5277;48.722;8.736;2022-08-19T06:51:42;19.75;;;16.33;;
10458;SDS011;5277;48.722;8.736;2022-08-19T06:54:09;22.45;;;16.05;;
10458;SDS011;5277;48.722;8.736;2022-08-19T06:56:35;17.00;;;14.82;;
10458;SDS011;5277;48.722;8.736;2022-08-19T06:59:06;16.05;;;14.35;;
10458;SDS011;5277;48.722;8.736;2022-08-19T07:01:44;16.45;;;13.80;;
10458;SDS011;5277;48.722;8.736;2022-08-19T07:04:12;19.52;;;15.38;;
10458;SDS011;5277;48.722;8.736;2022-08-19T07:06:40;16.85;;;14.25;;
10458;SDS011;5277;48.722;8.736;2022-08-19T07:09:07;17.70;;;14.45;;
10458;SDS011;5277;48.722;8.736;2022-08-19T07:11:34;15.30;;;13.60;;
10458;SDS011;5277;48.722;8.736;2022-08-19T07:14:00;16.55;;;13.77;;
10458;SDS011;5277;48.722;8.736;2022-08-19T07:16:27;16.27;;;13.77;;
10458;SDS011;5277;48.722;8.736;2022-08-19T07:18:57;16.92;;;14.85;;
10458;SDS011;5277;48.722;8.736;2022-08-19T07:21:25;17.38;;;13.85;;
10458;SDS011;5277;48.722;8.736;2022-08-19T07:23:55;19.65;;;13.13;;
10458;SDS011;5277;48.722;8.736;2022-08-19T07:26:26;15.30;;;13.38;;
10458;SDS011;5277;48.722;8.736;2022-08-19T07:28:56;15.73;;;12.95;;
10458;SDS011;5277;48.722;8.736;2022-08-19T07:31:24;16.75;;;13.70;;
10458;SDS011;5277;48.722;8.736;2022-08-19T07:33:53;14.50;;;13.02;;
10458;SDS011;5277;48.722;8.736;2022-08-19T07:36:29;16.73;;;13.20;;
10458;SDS011;5277;48.722;8.736;2022-08-19T07:38:57;14.43;;;12.75;;
10458;SDS011;5277;48.722;8.736;2022-08-19T07:41:25;15.15;;;13.43;;
10458;SDS011;5277;48.722;8.736;2022-08-19T07:43:54;14.50;;;12.25;;
10458;SDS011;5277;48.722;8.736;2022-08-19T07:46:20;13.93;;;12.35;;
10458;SDS011;5277;48.722;8.736;2022-08-19T07:48:47;14.30;;;12.77;;
10458;SDS011;5277;48.722;8.736;2022-08-19T07:51:15;14.45;;;12.95;;
10458;SDS011;5277;48.722;8.736;2022-08-19T07:53:44;12.77;;;11.48;;
10458;SDS011;5277;48.722;8.736;2022-08-19T07:56:12;13.68;;;12.07;;
10458;SDS011;5277;48.722;8.736;2022-08-19T07:58:40;13.70;;;11.88;;
10458;SDS011;5277;48.722;8.736;2022-08-19T08:01:08;14.07;;;11.43;;
10458;SDS011;5277;48.722;8.736;2022-08-19T08:03:36;12.27;;;10.68;;
10458;SDS011;5277;48.722;8.736;2022-08-19T08:06:22;14.30;;;11.50;;
10458;SDS011;5277;48.722;8.736;2022-08-19T08:09:07;14.25;;;11.10;;
10458;SDS011;5277;48.722;8.736;2022-08-19T08:11:43;11.90;;;10.45;;
10458;SDS011;5277;48.722;8.736;2022-08-19T08:14:16;16.52;;;10.57;;
10458;SDS011;5277;48.722;8.736;2022-08-19T08:16:43;11.73;;;10.50;;
10458;SDS011;5277;48.722;8.736;2022-08-19T08:19:10;12.73;;;9.52;;
10458;SDS011;5277;48.722;8.736;2022-08-19T08:21:39;13.60;;;9.30;;
10458;SDS011;5277;48.722;8.736;2022-08-19T08:24:08;11.85;;;9.82;;
10458;SDS011;5277;48.722;8.736;2022-08-19T08:26:35;11.10;;;9.90;;
10458;SDS011;5277;48.722;8.736;2022-08-19T08:29:01;11.52;;;9.60;;
10458;SDS011;5277;48.722;8.736;2022-08-19T08:31:26;17.20;;;9.77;;
10458;SDS011;5277;48.722;8.736;2022-08-19T08:33:53;11.35;;;9.52;;
10458;SDS011;5277;48.722;8.736;2022-08-19T08:36:20;12.07;;;9.63;;
10458;SDS011;5277;48.722;8.736;2022-08-19T08:38:49;12.40;;;10.65;;
10458;SDS011;5277;48.722;8.736;2022-08-19T08:41:18;11.35;;;9.85;;
10458;SDS011;5277;48.722;8.736;2022-08-19T08:43:53;11.60;;;9.60;;
10458;SDS011;5277;48.722;8.736;2022-08-19T08:46:39;11.13;;;10.02;;
10458;SDS011;5277;48.722;8.736;2022-08-19T08:52:21;11.27;;;10.18;;
10458;SDS011;5277;48.722;8.736;2022-08-19T08:54:52;10.75;;;9.63;;
10458;SDS011;5277;48.722;8.736;2022-08-19T09:00:10;13.38;;;9.82;;
10458;SDS011;5277;48.722;8.736;2022-08-19T09:02:40;11.55;;;9.85;;
10458;SDS011;5277;48.722;8.736;2022-08-19T09:05:06;11.80;;;9.98;;
10458;SDS011;5277;48.722;8.736;2022-08-19T09:15:46;9.65;;;8.65;;
10458;SDS011;5277;48.722;8.736;2022-08-19T09:18:23;11.95;;;10.00;;
10458;SDS011;5277;48.722;8.736;2022-08-19T09:24:26;11.43;;;9.65;;
10458;SDS011;5277;48.722;8.736;2022-08-19T09:26:52;10.85;;;9.60;;
10458;SDS011;5277;48.722;8.736;2022-08-19T09:29:18;11.85;;;9.20;;
10458;SDS011;5277;48.722;8.736;2022-08-19T09:31:45;10.52;;;9.52;;
10458;SDS011;5277;48.722;8.736;2022-08-19T09:34:11;11.75;;;9.27;;
10458;SDS011;5277;48.722;8.736;2022-08-19T09:36:37;11.05;;;9.95;;
10458;SDS011;5277;48.722;8.736;2022-08-19T09:39:04;13.10;;;10.55;;
10458;SDS011;5277;48.722;8.736;2022-08-19T09:41:31;12.43;;;10.00;;
10458;SDS011;5277;48.722;8.736;2022-08-19T09:43:57;12.25;;;10.50;;
10458;SDS011;5277;48.722;8.736;2022-08-19T09:46:25;11.55;;;9.75;;
10458;SDS011;5277;48.722;8.736;2022-08-19T09:48:52;11.18;;;9.48;;
10458;SDS011;5277;48.722;8.736;2022-08-19T09:51:20;12.15;;;9.73;;
10458;SDS011;5277;48.722;8.736;2022-08-19T09:53:49;12.02;;;9.77;;
10458;SDS011;5277;48.722;8.736;2022-08-19T09:56:17;10.85;;;9.70;;
10458;SDS011;5277;48.722;8.736;2022-08-19T09:58:43;11.25;;;10.05;;
10458;SDS011;5277;48.722;8.736;2022-08-19T10:01:14;14.68;;;10.05;;
10458;SDS011;5277;48.722;8.736;2022-08-19T10:03:49;11.07;;;9.45;;
10458;SDS011;5277;48.722;8.736;2022-08-19T10:06:18;12.20;;;9.40;;
10458;SDS011;5277;48.722;8.736;2022-08-19T10:08:45;12.40;;;9.57;;
10458;SDS011;5277;48.722;8.736;2022-08-19T10:11:11;12.15;;;9.15;;
10458;SDS011;5277;48.722;8.736;2022-08-19T10:13:40;11.20;;;9.60;;
10458;SDS011;5277;48.722;8.736;2022-08-19T10:16:08;12.52;;;9.32;;
10458;SDS011;5277;48.722;8.736;2022-08-19T10:18:36;9.77;;;8.77;;
10458;SDS011;5277;48.722;8.736;2022-08-19T10:21:13;12.82;;;8.73;;
10458;SDS011;5277;48.722;8.736;2022-08-19T10:23:42;9.85;;;8.88;;
10458;SDS011;5277;48.722;8.736;2022-08-19T10:26:18;10.05;;;8.98;;
10458;SDS011;5277;48.722;8.736;2022-08-19T10:28:55;8.52;;;7.60;;
10458;SDS011;5277;48.722;8.736;2022-08-19T10:31:23;9.27;;;8.38;;
10458;SDS011;5277;48.722;8.736;2022-08-19T10:33:53;11.10;;;8.10;;
10458;SDS011;5277;48.722;8.736;2022-08-19T10:36:28;10.27;;;7.75;;
10458;SDS011;5277;48.722;8.736;2022-08-19T10:39:00;9.57;;;8.27;;
10458;SDS011;5277;48.722;8.736;2022-08-19T10:41:30;10.95;;;7.00;;
10458;SDS011;5277;48.722;8.736;2022-08-19T10:43:59;8.07;;;6.60;;
10458;SDS011;5277;48.722;8.736;2022-08-19T10:46:28;7.65;;;6.53;;
10458;SDS011;5277;48.722;8.736;2022-08-19T10:49:00;8.50;;;6.40;;
10458;SDS011;5277;48.722;8.736;2022-08-19T10:51:27;9.02;;;7.07;;
10458;SDS011;5277;48.722;8.736;2022-08-19T10:54:12;6.90;;;6.20;;
10458;SDS011;5277;48.722;8.736;2022-08-19T10:56:38;7.28;;;6.20;;
10458;SDS011;5277;48.722;8.736;2022-08-19T10:59:16;9.10;;;6.32;;
10458;SDS011;5277;48.722;8.736;2022-08-19T11:01:51;8.77;;;6.13;;
10458;SDS011;5277;48.722;8.736;2022-08-19T11:04:26;6.97;;;5.75;;
10458;SDS011;5277;48.722;8.736;2022-08-19T11:06:58;8.63;;;5.47;;
10458;SDS011;5277;48.722;8.736;2022-08-19T11:09:25;6.57;;;5.60;;
10458;SDS011;5277;48.722;8.736;2022-08-19T11:11:52;6.80;;;5.68;;
10458;SDS011;5277;48.722;8.736;2022-08-19T11:14:19;6.60;;;5.47;;
10458;SDS011;5277;48.722;8.736;2022-08-19T11:16:46;5.78;;;5.28;;
10458;SDS011;5277;48.722;8.736;2022-08-19T11:19:13;9.52;;;5.53;;
10458;SDS011;5277;48.722;8.736;2022-08-19T11:21:44;7.38;;;5.93;;
10458;SDS011;5277;48.722;8.736;2022-08-19T11:24:12;6.72;;;5.22;;
10458;SDS011;5277;48.722;8.736;2022-08-19T11:26:41;8.60;;;5.32;;
10458;SDS011;5277;48.722;8.736;2022-08-19T11:29:09;7.35;;;5.43;;
10458;SDS011;5277;48.722;8.736;2022-08-19T11:31:36;5.55;;;5.05;;
10458;SDS011;5277;48.722;8.736;2022-08-19T11:34:05;6.70;;;5.78;;
10458;SDS011;5277;48.722;8.736;2022-08-19T11:36:32;5.95;;;5.38;;
10458;SDS011;5277;48.722;8.736;2022-08-19T11:38:58;8.35;;;5.15;;
10458;SDS011;5277;48.722;8.736;2022-08-19T11:41:24;6.60;;;5.10;;
10458;SDS011;5277;48.722;8.736;2022-08-19T11:43:51;7.18;;;5.05;;
10458;SDS011;5277;48.722;8.736;2022-08-19T11:46:23;5.57;;;5.00;;
10458;SDS011;5277;48.722;8.736;2022-08-19T11:49:00;5.28;;;4.78;;
10458;SDS011;5277;48.722;8.736;2022-08-19T11:51:34;6.82;;;4.90;;
10458;SDS011;5277;48.722;8.736;2022-08-19T11:54:04;6.38;;;5.25;;
10458;SDS011;5277;48.722;8.736;2022-08-19T11:56:30;5.22;;;4.72;;
10458;SDS011;5277;48.722;8.736;2022-08-19T11:58:57;6.25;;;4.80;;
10458;SDS011;5277;48.722;8.736;2022-08-19T12:01:24;4.60;;;4.20;;
10458;SDS011;5277;48.722;8.736;2022-08-19T12:03:52;5.18;;;4.68;;
10458;SDS011;5277;48.722;8.736;2022-08-19T12:06:28;5.03;;;4.53;;
10458;SDS011;5277;48.722;8.736;2022-08-19T12:08:57;5.10;;;4.30;;
10458;SDS011;5277;48.722;8.736;2022-08-19T12:11:24;5.07;;;4.65;;
10458;SDS011;5277;48.722;8.736;2022-08-19T12:13:50;5.43;;;4.63;;
10458;SDS011;5277;48.722;8.736;2022-08-19T12:16:20;5.82;;;4.70;;
10458;SDS011;5277;48.722;8.736;2022-08-19T12:25:23;4.85;;;4.45;;
10458;SDS011;5277;48.722;8.736;2022-08-19T12:27:49;6.07;;;4.90;;
10458;SDS011;5277;48.722;8.736;2022-08-19T12:30:15;5.10;;;4.60;;
10458;SDS011;5277;48.722;8.736;2022-08-19T12:32:40;5.55;;;4.70;;
10458;SDS011;5277;48.722;8.736;2022-08-19T12:35:06;22.23;;;5.43;;
10458;SDS011;5277;48.722;8.736;2022-08-19T12:37:35;28.23;;;7.22;;
10458;SDS011;5277;48.722;8.736;2022-08-19T12:40:01;6.70;;;5.13;;
10458;SDS011;5277;48.722;8.736;2022-08-19T12:42:28;10.98;;;5.47;;
10458;SDS011;5277;48.722;8.736;2022-08-19T12:44:55;5.53;;;5.10;;
10458;SDS011;5277;48.722;8.736;2022-08-19T12:47:21;6.93;;;5.50;;
10458;SDS011;5277;48.722;8.736;2022-08-19T12:49:47;8.43;;;5.90;;
10458;SDS011;5277;48.722;8.736;2022-08-19T12:52:14;8.80;;;6.20;;
10458;SDS011;5277;48.722;8.736;2022-08-19T12:54:44;6.85;;;5.55;;
10458;SDS011;5277;48.722;8.736;2022-08-19T12:57:15;6.57;;;5.88;;
10458;SDS011;5277;48.722;8.736;2022-08-19T13:00:19;6.60;;;5.90;;
10458;SDS011;5277;48.722;8.736;2022-08-19T13:03:09;6.68;;;5.97;;
10458;SDS011;5277;48.722;8.736;2022-08-19T13:09:11;6.60;;;6.00;;
10458;SDS011;5277;48.722;8.736;2022-08-19T13:15:15;7.03;;;6.32;;
10458;SDS011;5277;48.722;8.736;2022-08-19T13:18:10;25.35;;;6.47;;
10458;SDS011;5277;48.722;8.736;2022-08-19T13:20:52;17.02;;;6.65;;
10458;SDS011;5277;48.722;8.736;2022-08-19T13:27:11;7.30;;;6.55;;
10458;SDS011;5277;48.722;8.736;2022-08-19T13:30:31;11.43;;;5.97;;
10458;SDS011;5277;48.722;8.736;2022-08-19T13:33:15;10.73;;;6.20;;
10458;SDS011;5277;48.722;8.736;2022-08-19T13:35:45;6.60;;;6.00;;
10458;SDS011;5277;48.722;8.736;2022-08-19T13:38:18;8.95;;;6.15;;
10458;SDS011;5277;48.722;8.736;2022-08-19T13:40:45;6.88;;;6.18;;
10458;SDS011;5277;48.722;8.736;2022-08-19T13:43:12;7.97;;;5.75;;
10458;SDS011;5277;48.722;8.736;2022-08-19T13:45:38;7.47;;;6.20;;
10458;SDS011;5277;48.722;8.736;2022-08-19T13:48:05;7.85;;;7.15;;
10458;SDS011;5277;48.722;8.736;2022-08-19T13:50:33;7.50;;;6.47;;
10458;SDS011;5277;48.722;8.736;2022-08-19T13:53:10;8.48;;;6.35;;
10458;SDS011;5277;48.722;8.736;2022-08-19T13:55:40;6.68;;;6.18;;
10458;SDS011;5277;48.722;8.736;2022-08-19T13:58:07;10.10;;;6.80;;
10458;SDS011;5277;48.722;8.736;2022-08-19T14:00:35;11.32;;;6.68;;
10458;SDS011;5277;48.722;8.736;2022-08-19T14:03:03;6.82;;;6.22;;
10458;SDS011;5277;48.722;8.736;2022-08-19T14:05:29;7.45;;;6.75;;
10458;SDS011;5277;48.722;8.736;2022-08-19T14:07:56;6.95;;;6.22;;
10458;SDS011;5277;48.722;8.736;2022-08-19T14:10:22;7.95;;;6.75;;
10458;SDS011;5277;48.722;8.736;2022-08-19T14:12:52;12.73;;;6.97;;
10458;SDS011;5277;48.722;8.736;2022-08-19T14:15:23;7.03;;;6.43;;
10458;SDS011;5277;48.722;8.736;2022-08-19T14:17:49;6.90;;;6.30;;
10458;SDS011;5277;48.722;8.736;2022-08-19T14:20:15;6.78;;;6.28;;
10458;SDS011;5277;48.722;8.736;2022-08-19T14:22:42;7.38;;;6.68;;
10458;SDS011;5277;48.722;8.736;2022-08-19T14:25:09;6.90;;;6.30;;
10458;SDS011;5277;48.722;8.736;2022-08-19T14:27:38;8.10;;;7.30;;
10458;SDS011;5277;48.722;8.736;2022-08-19T14:30:06;6.70;;;6.10;;
10458;SDS011;5277;48.722;8.736;2022-08-19T14:32:34;9.88;;;6.47;;
10458;SDS011;5277;48.722;8.736;2022-08-19T14:35:00;7.07;;;6.32;;
10458;SDS011;5277;48.722;8.736;2022-08-19T14:37:26;6.65;;;6.05;;
10458;SDS011;5277;48.722;8.736;2022-08-19T14:39:52;9.13;;;6.75;;
10458;SDS011;5277;48.722;8.736;2022-08-19T14:42:18;7.35;;;6.65;;
10458;SDS011;5277;48.722;8.736;2022-08-19T14:44:44;7.28;;;6.68;;
10458;SDS011;5277;48.722;8.736;2022-08-19T14:47:10;7.20;;;6.20;;
10458;SDS011;5277;48.722;8.736;2022-08-19T14:49:36;7.88;;;6.18;;
10458;SDS011;5277;48.722;8.736;2022-08-19T14:52:02;10.20;;;7.32;;
10458;SDS011;5277;48.722;8.736;2022-08-19T14:54:28;7.00;;;6.30;;
10458;SDS011;5277;48.722;8.736;2022-08-19T14:56:55;8.52;;;6.53;;
10458;SDS011;5277;48.722;8.736;2022-08-19T14:59:20;6.82;;;6.20;;
10458;SDS011;5277;48.722;8.736;2022-08-19T15:01:46;7.53;;;6.15;;
10458;SDS011;5277;48.722;8.736;2022-08-19T15:04:12;7.00;;;6.20;;
10458;SDS011;5277;48.722;8.736;2022-08-19T15:06:38;6.63;;;6.03;;
10458;SDS011;5277;48.722;8.736;2022-08-19T15:09:05;6.65;;;5.97;;
10458;SDS011;5277;48.722;8.736;2022-08-19T15:11:31;6.50;;;5.90;;
10458;SDS011;5277;48.722;8.736;2022-08-19T15:13:58;6.35;;;5.75;;
10458;SDS011;5277;48.722;8.736;2022-08-19T15:16:24;6.78;;;6.18;;
10458;SDS011;5277;48.722;8.736;2022-08-19T15:18:52;6.65;;;6.03;;
10458;SDS011;5277;48.722;8.736;2022-08-19T15:21:19;6.43;;;5.82;;
10458;SDS011;5277;48.722;8.736;2022-08-19T15:23:46;17.73;;;6.22;;
10458;SDS011;5277;48.722;8.736;2022-08-19T15:26:14;9.77;;;6.18;;
10458;SDS011;5277;48.722;8.736;2022-08-19T15:28:43;6.45;;;5.90;;
10458;SDS011;5277;48.722;8.736;2022-08-19T15:31:09;6.28;;;5.50;;
10458;SDS011;5277;48.722;8.736;2022-08-19T15:33:37;6.40;;;5.80;;